Terminal Aerodrome Forecast
Issued by NWS

Home | Current Version | Previous Version | Text Only | Print | Product List | Glossary On
Versions: 1 2 3 4 5 6 7 8 9 10 11 12 13 14 15
000
FTUS43 KGRR 081140
TAFJXN
TAF
KJXN 081140Z 0812/0912 28015G26KT P6SM -SHSN OVC020
     FM081500 27015G23KT 4SM -SHSN BLSN BR OVC015
     FM090300 28010KT 6SM -SHSN BR OVC020=

USA.gov is the U.S. government's official web portal to all federal, state and local government web resources and services.